sensor_id;sensor_type;location;lat;lon;timestamp;P1;durP1;ratioP1;P2;durP2;ratioP2
52180;SDS011;38158;53.338;6.514;2024-03-23T00:54:33;20.02;;;4.93;;
52180;SDS011;38158;53.338;6.514;2024-03-23T00:56:59;17.65;;;4.20;;
52180;SDS011;38158;53.338;6.514;2024-03-23T00:59:24;22.42;;;4.20;;
52180;SDS011;38158;53.338;6.514;2024-03-23T01:01:53;20.05;;;4.72;;
52180;SDS011;38158;53.338;6.514;2024-03-23T01:04:22;24.52;;;4.38;;
52180;SDS011;38158;53.338;6.514;2024-03-23T01:06:47;18.42;;;3.95;;
52180;SDS011;38158;53.338;6.514;2024-03-23T01:09:13;20.35;;;4.13;;
52180;SDS011;38158;53.338;6.514;2024-03-23T01:11:39;14.10;;;3.65;;
52180;SDS011;38158;53.338;6.514;2024-03-23T01:14:05;21.13;;;5.72;;
52180;SDS011;38158;53.338;6.514;2024-03-23T01:16:31;18.38;;;4.25;;
52180;SDS011;38158;53.338;6.514;2024-03-23T01:18:57;23.15;;;4.70;;
52180;SDS011;38158;53.338;6.514;2024-03-23T01:21:23;20.73;;;4.32;;
52180;SDS011;38158;53.338;6.514;2024-03-23T01:23:50;24.80;;;4.60;;
52180;SDS011;38158;53.338;6.514;2024-03-23T01:26:15;20.60;;;4.50;;
52180;SDS011;38158;53.338;6.514;2024-03-23T01:28:41;18.52;;;4.20;;
52180;SDS011;38158;53.338;6.514;2024-03-23T01:31:07;27.00;;;6.00;;
52180;SDS011;38158;53.338;6.514;2024-03-23T01:33:32;17.98;;;3.97;;
52180;SDS011;38158;53.338;6.514;2024-03-23T01:35:58;22.05;;;4.50;;
52180;SDS011;38158;53.338;6.514;2024-03-23T01:38:24;23.85;;;4.85;;
52180;SDS011;38158;53.338;6.514;2024-03-23T01:40:49;16.08;;;3.25;;
52180;SDS011;38158;53.338;6.514;2024-03-23T01:43:21;17.98;;;4.30;;
52180;SDS011;38158;53.338;6.514;2024-03-23T01:45:46;20.08;;;4.90;;
52180;SDS011;38158;53.338;6.514;2024-03-23T01:48:12;13.70;;;3.17;;
52180;SDS011;38158;53.338;6.514;2024-03-23T01:50:38;17.75;;;4.13;;
52180;SDS011;38158;53.338;6.514;2024-03-23T01:53:04;15.60;;;4.82;;
52180;SDS011;38158;53.338;6.514;2024-03-23T01:55:31;20.02;;;3.95;;
52180;SDS011;38158;53.338;6.514;2024-03-23T01:57:57;24.95;;;3.88;;
52180;SDS011;38158;53.338;6.514;2024-03-23T02:00:23;22.13;;;4.47;;
52180;SDS011;38158;53.338;6.514;2024-03-23T02:02:49;13.00;;;3.10;;
52180;SDS011;38158;53.338;6.514;2024-03-23T02:05:15;14.57;;;3.92;;
52180;SDS011;38158;53.338;6.514;2024-03-23T02:07:41;14.93;;;3.60;;
52180;SDS011;38158;53.338;6.514;2024-03-23T02:10:08;17.63;;;3.35;;
52180;SDS011;38158;53.338;6.514;2024-03-23T02:12:43;16.90;;;3.55;;
52180;SDS011;38158;53.338;6.514;2024-03-23T02:15:09;20.65;;;3.80;;
52180;SDS011;38158;53.338;6.514;2024-03-23T02:17:35;18.05;;;3.65;;
52180;SDS011;38158;53.338;6.514;2024-03-23T02:20:04;18.88;;;4.25;;
52180;SDS011;38158;53.338;6.514;2024-03-23T02:22:37;19.27;;;4.47;;
52180;SDS011;38158;53.338;6.514;2024-03-23T02:25:04;16.75;;;3.17;;
52180;SDS011;38158;53.338;6.514;2024-03-23T02:27:30;20.60;;;4.38;;
52180;SDS011;38158;53.338;6.514;2024-03-23T02:29:56;25.35;;;4.03;;
52180;SDS011;38158;53.338;6.514;2024-03-23T02:32:21;16.20;;;2.85;;
52180;SDS011;38158;53.338;6.514;2024-03-23T02:34:47;16.00;;;3.58;;
52180;SDS011;38158;53.338;6.514;2024-03-23T02:37:13;17.25;;;4.00;;
52180;SDS011;38158;53.338;6.514;2024-03-23T02:39:38;26.10;;;4.68;;
52180;SDS011;38158;53.338;6.514;2024-03-23T02:42:04;15.75;;;3.35;;
52180;SDS011;38158;53.338;6.514;2024-03-23T02:44:30;19.38;;;3.80;;
52180;SDS011;38158;53.338;6.514;2024-03-23T02:46:55;13.85;;;2.80;;
52180;SDS011;38158;53.338;6.514;2024-03-23T02:49:21;12.65;;;3.35;;
52180;SDS011;38158;53.338;6.514;2024-03-23T02:51:47;18.38;;;3.67;;
52180;SDS011;38158;53.338;6.514;2024-03-23T02:54:13;12.20;;;3.10;;
52180;SDS011;38158;53.338;6.514;2024-03-23T02:56:39;16.10;;;2.83;;
52180;SDS011;38158;53.338;6.514;2024-03-23T02:59:05;15.57;;;3.22;;
52180;SDS011;38158;53.338;6.514;2024-03-23T03:01:31;18.30;;;2.70;;
52180;SDS011;38158;53.338;6.514;2024-03-23T03:03:56;11.48;;;2.92;;
52180;SDS011;38158;53.338;6.514;2024-03-23T03:06:25;20.00;;;3.25;;
52180;SDS011;38158;53.338;6.514;2024-03-23T03:08:51;12.10;;;2.28;;
52180;SDS011;38158;53.338;6.514;2024-03-23T03:11:17;21.70;;;3.85;;
52180;SDS011;38158;53.338;6.514;2024-03-23T03:13:43;13.68;;;3.00;;
52180;SDS011;38158;53.338;6.514;2024-03-23T03:16:09;13.65;;;3.10;;
52180;SDS011;38158;53.338;6.514;2024-03-23T03:18:35;12.10;;;3.00;;
52180;SDS011;38158;53.338;6.514;2024-03-23T03:21:01;20.70;;;3.50;;
52180;SDS011;38158;53.338;6.514;2024-03-23T03:23:27;21.27;;;4.10;;
52180;SDS011;38158;53.338;6.514;2024-03-23T03:25:54;15.52;;;3.58;;
52180;SDS011;38158;53.338;6.514;2024-03-23T03:28:19;12.30;;;2.72;;
52180;SDS011;38158;53.338;6.514;2024-03-23T03:30:45;16.57;;;2.83;;
52180;SDS011;38158;53.338;6.514;2024-03-23T03:33:11;14.43;;;3.03;;
52180;SDS011;38158;53.338;6.514;2024-03-23T03:35:37;13.02;;;3.90;;
52180;SDS011;38158;53.338;6.514;2024-03-23T03:38:02;15.13;;;2.78;;
52180;SDS011;38158;53.338;6.514;2024-03-23T03:40:29;12.63;;;2.35;;
52180;SDS011;38158;53.338;6.514;2024-03-23T03:42:55;15.05;;;2.97;;
52180;SDS011;38158;53.338;6.514;2024-03-23T03:45:21;16.80;;;2.55;;
52180;SDS011;38158;53.338;6.514;2024-03-23T03:47:46;17.10;;;3.30;;
52180;SDS011;38158;53.338;6.514;2024-03-23T03:50:12;18.75;;;3.75;;
52180;SDS011;38158;53.338;6.514;2024-03-23T03:52:38;15.93;;;3.60;;
52180;SDS011;38158;53.338;6.514;2024-03-23T03:55:03;16.52;;;2.88;;
52180;SDS011;38158;53.338;6.514;2024-03-23T03:57:38;18.15;;;3.40;;
52180;SDS011;38158;53.338;6.514;2024-03-23T04:00:03;15.13;;;2.40;;
52180;SDS011;38158;53.338;6.514;2024-03-23T04:02:30;14.95;;;2.72;;
52180;SDS011;38158;53.338;6.514;2024-03-23T04:04:55;17.15;;;4.28;;
52180;SDS011;38158;53.338;6.514;2024-03-23T04:07:21;16.58;;;2.75;;
52180;SDS011;38158;53.338;6.514;2024-03-23T04:09:48;18.67;;;3.33;;
52180;SDS011;38158;53.338;6.514;2024-03-23T04:12:14;10.48;;;2.88;;
52180;SDS011;38158;53.338;6.514;2024-03-23T04:14:40;13.02;;;2.78;;
52180;SDS011;38158;53.338;6.514;2024-03-23T04:17:06;12.35;;;3.35;;
52180;SDS011;38158;53.338;6.514;2024-03-23T04:19:32;12.73;;;2.50;;
52180;SDS011;38158;53.338;6.514;2024-03-23T04:21:57;13.55;;;1.83;;
52180;SDS011;38158;53.338;6.514;2024-03-23T04:24:23;12.13;;;2.47;;
52180;SDS011;38158;53.338;6.514;2024-03-23T04:26:51;13.18;;;3.83;;
52180;SDS011;38158;53.338;6.514;2024-03-23T04:29:17;13.40;;;2.58;;
52180;SDS011;38158;53.338;6.514;2024-03-23T04:31:42;15.23;;;3.47;;
52180;SDS011;38158;53.338;6.514;2024-03-23T04:34:08;13.30;;;3.20;;
52180;SDS011;38158;53.338;6.514;2024-03-23T04:36:34;15.50;;;2.97;;
52180;SDS011;38158;53.338;6.514;2024-03-23T04:38:59;12.77;;;3.15;;
52180;SDS011;38158;53.338;6.514;2024-03-23T04:41:25;12.07;;;2.40;;
52180;SDS011;38158;53.338;6.514;2024-03-23T04:43:51;21.80;;;3.58;;
52180;SDS011;38158;53.338;6.514;2024-03-23T04:46:17;16.23;;;2.67;;
52180;SDS011;38158;53.338;6.514;2024-03-23T04:48:43;16.92;;;3.03;;
52180;SDS011;38158;53.338;6.514;2024-03-23T04:51:09;16.05;;;3.22;;
52180;SDS011;38158;53.338;6.514;2024-03-23T04:53:37;15.98;;;3.60;;
52180;SDS011;38158;53.338;6.514;2024-03-23T04:56:03;11.48;;;2.53;;
52180;SDS011;38158;53.338;6.514;2024-03-23T04:58:29;10.38;;;2.13;;
52180;SDS011;38158;53.338;6.514;2024-03-23T05:00:55;19.27;;;2.90;;
52180;SDS011;38158;53.338;6.514;2024-03-23T05:03:21;12.80;;;2.40;;
52180;SDS011;38158;53.338;6.514;2024-03-23T05:05:47;12.30;;;2.85;;
52180;SDS011;38158;53.338;6.514;2024-03-23T05:08:14;13.33;;;2.90;;
52180;SDS011;38158;53.338;6.514;2024-03-23T05:10:41;14.75;;;2.25;;
52180;SDS011;38158;53.338;6.514;2024-03-23T05:13:07;16.23;;;3.33;;
52180;SDS011;38158;53.338;6.514;2024-03-23T05:15:33;11.65;;;2.78;;
52180;SDS011;38158;53.338;6.514;2024-03-23T05:17:59;14.43;;;2.78;;
52180;SDS011;38158;53.338;6.514;2024-03-23T05:20:24;12.02;;;2.05;;
52180;SDS011;38158;53.338;6.514;2024-03-23T05:22:50;18.00;;;3.33;;
52180;SDS011;38158;53.338;6.514;2024-03-23T05:25:15;13.23;;;3.08;;
52180;SDS011;38158;53.338;6.514;2024-03-23T05:27:41;10.75;;;1.85;;
52180;SDS011;38158;53.338;6.514;2024-03-23T05:30:07;9.63;;;2.20;;
52180;SDS011;38158;53.338;6.514;2024-03-23T05:32:34;14.60;;;2.15;;
52180;SDS011;38158;53.338;6.514;2024-03-23T05:34:59;10.30;;;2.92;;
52180;SDS011;38158;53.338;6.514;2024-03-23T05:37:25;11.88;;;2.75;;
52180;SDS011;38158;53.338;6.514;2024-03-23T05:39:51;13.55;;;2.40;;
52180;SDS011;38158;53.338;6.514;2024-03-23T05:42:17;12.07;;;2.10;;
52180;SDS011;38158;53.338;6.514;2024-03-23T05:44:46;14.40;;;2.58;;
52180;SDS011;38158;53.338;6.514;2024-03-23T05:47:12;11.85;;;3.00;;
52180;SDS011;38158;53.338;6.514;2024-03-23T05:49:41;11.63;;;2.40;;
52180;SDS011;38158;53.338;6.514;2024-03-23T05:52:08;14.18;;;3.45;;
52180;SDS011;38158;53.338;6.514;2024-03-23T05:54:34;8.95;;;2.35;;
52180;SDS011;38158;53.338;6.514;2024-03-23T05:57:01;14.93;;;2.60;;
52180;SDS011;38158;53.338;6.514;2024-03-23T05:59:29;20.40;;;2.50;;
52180;SDS011;38158;53.338;6.514;2024-03-23T06:01:56;16.98;;;2.58;;
52180;SDS011;38158;53.338;6.514;2024-03-23T06:04:21;17.05;;;2.88;;
52180;SDS011;38158;53.338;6.514;2024-03-23T06:06:48;14.50;;;2.25;;
52180;SDS011;38158;53.338;6.514;2024-03-23T06:09:13;11.73;;;2.30;;
52180;SDS011;38158;53.338;6.514;2024-03-23T06:11:39;18.38;;;2.88;;
52180;SDS011;38158;53.338;6.514;2024-03-23T06:14:05;19.88;;;1.88;;
52180;SDS011;38158;53.338;6.514;2024-03-23T06:16:31;10.48;;;1.98;;
52180;SDS011;38158;53.338;6.514;2024-03-23T06:18:56;13.75;;;1.98;;
52180;SDS011;38158;53.338;6.514;2024-03-23T06:21:23;10.88;;;2.03;;
52180;SDS011;38158;53.338;6.514;2024-03-23T06:23:52;12.02;;;2.22;;
52180;SDS011;38158;53.338;6.514;2024-03-23T06:26:18;13.02;;;2.40;;
52180;SDS011;38158;53.338;6.514;2024-03-23T06:28:44;14.52;;;2.13;;
52180;SDS011;38158;53.338;6.514;2024-03-23T06:31:10;10.88;;;1.83;;
52180;SDS011;38158;53.338;6.514;2024-03-23T06:33:37;12.43;;;2.38;;
52180;SDS011;38158;53.338;6.514;2024-03-23T06:36:03;8.73;;;1.50;;
52180;SDS011;38158;53.338;6.514;2024-03-23T06:38:30;8.95;;;1.73;;
52180;SDS011;38158;53.338;6.514;2024-03-23T06:40:55;13.68;;;1.95;;
52180;SDS011;38158;53.338;6.514;2024-03-23T06:43:21;13.27;;;1.92;;
52180;SDS011;38158;53.338;6.514;2024-03-23T06:45:53;9.65;;;1.73;;
52180;SDS011;38158;53.338;6.514;2024-03-23T06:48:20;12.27;;;1.95;;
52180;SDS011;38158;53.338;6.514;2024-03-23T06:50:46;6.43;;;1.90;;
52180;SDS011;38158;53.338;6.514;2024-03-23T06:53:12;8.15;;;1.35;;
52180;SDS011;38158;53.338;6.514;2024-03-23T06:55:39;11.75;;;1.58;;
52180;SDS011;38158;53.338;6.514;2024-03-23T06:58:04;13.98;;;2.53;;
52180;SDS011;38158;53.338;6.514;2024-03-23T07:00:30;8.77;;;2.08;;
52180;SDS011;38158;53.338;6.514;2024-03-23T07:02:57;13.40;;;1.92;;
52180;SDS011;38158;53.338;6.514;2024-03-23T07:05:23;11.90;;;2.75;;
52180;SDS011;38158;53.338;6.514;2024-03-23T07:07:49;7.32;;;2.10;;
52180;SDS011;38158;53.338;6.514;2024-03-23T07:10:15;14.60;;;1.77;;
52180;SDS011;38158;53.338;6.514;2024-03-23T07:12:40;7.78;;;1.83;;
52180;SDS011;38158;53.338;6.514;2024-03-23T07:15:06;14.77;;;2.75;;
52180;SDS011;38158;53.338;6.514;2024-03-23T07:17:33;7.00;;;1.83;;
52180;SDS011;38158;53.338;6.514;2024-03-23T07:20:00;10.65;;;1.60;;
52180;SDS011;38158;53.338;6.514;2024-03-23T07:22:29;10.70;;;1.20;;
52180;SDS011;38158;53.338;6.514;2024-03-23T07:25:00;11.25;;;1.58;;
52180;SDS011;38158;53.338;6.514;2024-03-23T07:27:29;9.38;;;1.20;;
52180;SDS011;38158;53.338;6.514;2024-03-23T07:29:55;9.68;;;2.20;;
52180;SDS011;38158;53.338;6.514;2024-03-23T07:32:20;10.27;;;1.73;;
52180;SDS011;38158;53.338;6.514;2024-03-23T07:34:46;8.82;;;2.03;;
52180;SDS011;38158;53.338;6.514;2024-03-23T07:37:12;11.23;;;1.63;;
52180;SDS011;38158;53.338;6.514;2024-03-23T07:39:39;10.38;;;1.67;;
52180;SDS011;38158;53.338;6.514;2024-03-23T07:42:04;11.70;;;2.08;;
52180;SDS011;38158;53.338;6.514;2024-03-23T07:44:30;12.75;;;2.38;;
52180;SDS011;38158;53.338;6.514;2024-03-23T07:46:56;5.85;;;1.38;;
52180;SDS011;38158;53.338;6.514;2024-03-23T07:49:23;11.23;;;2.25;;
52180;SDS011;38158;53.338;6.514;2024-03-23T07:51:49;14.35;;;2.22;;
52180;SDS011;38158;53.338;6.514;2024-03-23T07:54:15;9.43;;;1.88;;
52180;SDS011;38158;53.338;6.514;2024-03-23T07:56:40;11.05;;;2.50;;
52180;SDS011;38158;53.338;6.514;2024-03-23T07:59:06;10.32;;;2.00;;
52180;SDS011;38158;53.338;6.514;2024-03-23T08:01:32;9.32;;;2.33;;
52180;SDS011;38158;53.338;6.514;2024-03-23T08:03:57;13.90;;;2.92;;
52180;SDS011;38158;53.338;6.514;2024-03-23T08:06:23;9.52;;;2.08;;
52180;SDS011;38158;53.338;6.514;2024-03-23T08:08:55;11.07;;;2.30;;
52180;SDS011;38158;53.338;6.514;2024-03-23T08:11:25;12.68;;;1.90;;
52180;SDS011;38158;53.338;6.514;2024-03-23T08:13:52;10.80;;;2.22;;
52180;SDS011;38158;53.338;6.514;2024-03-23T08:16:17;13.65;;;2.08;;
52180;SDS011;38158;53.338;6.514;2024-03-23T08:18:43;10.45;;;1.60;;
52180;SDS011;38158;53.338;6.514;2024-03-23T08:21:09;13.23;;;3.28;;
52180;SDS011;38158;53.338;6.514;2024-03-23T08:23:35;8.73;;;1.67;;
52180;SDS011;38158;53.338;6.514;2024-03-23T08:26:06;13.88;;;2.47;;
52180;SDS011;38158;53.338;6.514;2024-03-23T08:28:34;10.43;;;1.88;;
52180;SDS011;38158;53.338;6.514;2024-03-23T08:31:06;11.80;;;1.48;;
52180;SDS011;38158;53.338;6.514;2024-03-23T08:33:33;11.82;;;2.55;;
52180;SDS011;38158;53.338;6.514;2024-03-23T08:38:26;7.00;;;1.88;;
52180;SDS011;38158;53.338;6.514;2024-03-23T08:40:59;6.63;;;1.35;;
52180;SDS011;38158;53.338;6.514;2024-03-23T08:43:26;5.75;;;1.88;;
52180;SDS011;38158;53.338;6.514;2024-03-23T08:45:52;12.50;;;1.85;;
52180;SDS011;38158;53.338;6.514;2024-03-23T08:48:21;7.20;;;1.52;;
52180;SDS011;38158;53.338;6.514;2024-03-23T08:50:47;10.85;;;2.28;;
52180;SDS011;38158;53.338;6.514;2024-03-23T08:53:22;9.38;;;1.95;;
52180;SDS011;38158;53.338;6.514;2024-03-23T08:55:54;10.18;;;1.92;;
52180;SDS011;38158;53.338;6.514;2024-03-23T08:58:24;10.48;;;1.88;;
52180;SDS011;38158;53.338;6.514;2024-03-23T09:00:51;13.52;;;2.38;;
52180;SDS011;38158;53.338;6.514;2024-03-23T09:03:17;10.27;;;1.67;;
52180;SDS011;38158;53.338;6.514;2024-03-23T09:05:43;10.60;;;2.10;;
52180;SDS011;38158;53.338;6.514;2024-03-23T09:08:09;8.57;;;1.63;;
52180;SDS011;38158;53.338;6.514;2024-03-23T09:10:39;11.68;;;2.40;;
52180;SDS011;38158;53.338;6.514;2024-03-23T09:13:05;18.40;;;2.30;;
52180;SDS011;38158;53.338;6.514;2024-03-23T09:15:34;9.40;;;1.95;;
52180;SDS011;38158;53.338;6.514;2024-03-23T09:18:04;14.23;;;2.00;;
52180;SDS011;38158;53.338;6.514;2024-03-23T09:20:33;10.27;;;1.60;;
52180;SDS011;38158;53.338;6.514;2024-03-23T09:22:59;10.30;;;1.88;;
52180;SDS011;38158;53.338;6.514;2024-03-23T09:25:24;7.75;;;1.42;;
52180;SDS011;38158;53.338;6.514;2024-03-23T09:27:50;8.15;;;1.65;;
52180;SDS011;38158;53.338;6.514;2024-03-23T09:30:16;5.60;;;1.38;;
52180;SDS011;38158;53.338;6.514;2024-03-23T09:32:43;6.75;;;0.90;;
52180;SDS011;38158;53.338;6.514;2024-03-23T09:35:09;9.00;;;1.60;;
52180;SDS011;38158;53.338;6.514;2024-03-23T09:37:35;4.57;;;1.10;;
52180;SDS011;38158;53.338;6.514;2024-03-23T09:40:01;6.20;;;1.05;;
52180;SDS011;38158;53.338;6.514;2024-03-23T09:42:27;13.23;;;1.90;;
52180;SDS011;38158;53.338;6.514;2024-03-23T09:44:56;6.70;;;1.25;;
52180;SDS011;38158;53.338;6.514;2024-03-23T09:47:28;9.07;;;1.98;;
52180;SDS011;38158;53.338;6.514;2024-03-23T09:49:55;6.97;;;1.40;;
52180;SDS011;38158;53.338;6.514;2024-03-23T09:52:20;11.68;;;1.65;;
52180;SDS011;38158;53.338;6.514;2024-03-23T09:54:46;11.45;;;2.13;;
52180;SDS011;38158;53.338;6.514;2024-03-23T09:57:11;9.60;;;1.60;;
52180;SDS011;38158;53.338;6.514;2024-03-23T09:59:37;8.38;;;1.90;;
52180;SDS011;38158;53.338;6.514;2024-03-23T10:02:03;9.90;;;1.77;;
52180;SDS011;38158;53.338;6.514;2024-03-23T10:04:36;10.45;;;2.25;;
52180;SDS011;38158;53.338;6.514;2024-03-23T10:07:19;9.55;;;1.33;;
52180;SDS011;38158;53.338;6.514;2024-03-23T10:09:45;6.68;;;1.92;;
52180;SDS011;38158;53.338;6.514;2024-03-23T10:12:16;13.10;;;2.10;;
52180;SDS011;38158;53.338;6.514;2024-03-23T10:14:42;13.50;;;2.05;;
52180;SDS011;38158;53.338;6.514;2024-03-23T10:17:12;8.23;;;1.92;;
52180;SDS011;38158;53.338;6.514;2024-03-23T10:19:42;8.15;;;1.48;;
52180;SDS011;38158;53.338;6.514;2024-03-23T10:22:22;8.75;;;2.15;;
52180;SDS011;38158;53.338;6.514;2024-03-23T10:24:49;10.63;;;2.08;;
52180;SDS011;38158;53.338;6.514;2024-03-23T10:27:16;8.98;;;1.60;;
52180;SDS011;38158;53.338;6.514;2024-03-23T10:29:46;9.65;;;1.70;;
52180;SDS011;38158;53.338;6.514;2024-03-23T10:32:13;9.02;;;2.03;;
52180;SDS011;38158;53.338;6.514;2024-03-23T10:34:40;7.43;;;1.40;;
52180;SDS011;38158;53.338;6.514;2024-03-23T10:37:06;7.43;;;1.52;;
52180;SDS011;38158;53.338;6.514;2024-03-23T10:39:36;8.70;;;1.63;;
52180;SDS011;38158;53.338;6.514;2024-03-23T10:42:03;7.97;;;1.80;;
52180;SDS011;38158;53.338;6.514;2024-03-23T10:44:30;8.82;;;2.15;;
52180;SDS011;38158;53.338;6.514;2024-03-23T10:46:59;10.73;;;2.53;;
52180;SDS011;38158;53.338;6.514;2024-03-23T10:49:30;12.68;;;2.58;;
52180;SDS011;38158;53.338;6.514;2024-03-23T10:51:57;9.43;;;1.73;;
52180;SDS011;38158;53.338;6.514;2024-03-23T10:54:24;9.68;;;1.60;;
52180;SDS011;38158;53.338;6.514;2024-03-23T10:56:56;11.38;;;2.03;;
52180;SDS011;38158;53.338;6.514;2024-03-23T10:59:29;7.88;;;2.08;;
52180;SDS011;38158;53.338;6.514;2024-03-23T11:01:56;9.75;;;1.42;;
52180;SDS011;38158;53.338;6.514;2024-03-23T11:04:33;10.73;;;1.77;;
52180;SDS011;38158;53.338;6.514;2024-03-23T11:07:00;9.55;;;1.70;;
52180;SDS011;38158;53.338;6.514;2024-03-23T11:09:45;9.38;;;1.85;;
52180;SDS011;38158;53.338;6.514;2024-03-23T11:15:33;13.82;;;2.25;;
52180;SDS011;38158;53.338;6.514;2024-03-23T11:17:37;12.32;;;2.10;;
52180;SDS011;38158;53.338;6.514;2024-03-23T11:20:04;10.45;;;1.98;;
52180;SDS011;38158;53.338;6.514;2024-03-23T11:25:12;9.48;;;1.80;;
52180;SDS011;38158;53.338;6.514;2024-03-23T11:27:53;14.90;;;2.53;;
52180;SDS011;38158;53.338;6.514;2024-03-23T11:30:21;10.05;;;2.22;;
52180;SDS011;38158;53.338;6.514;2024-03-23T11:32:49;13.98;;;2.38;;
52180;SDS011;38158;53.338;6.514;2024-03-23T11:38:04;8.88;;;1.77;;
52180;SDS011;38158;53.338;6.514;2024-03-23T11:40:34;12.63;;;2.15;;
52180;SDS011;38158;53.338;6.514;2024-03-23T11:43:02;11.82;;;2.55;;
52180;SDS011;38158;53.338;6.514;2024-03-23T11:45:36;11.77;;;2.20;;
52180;SDS011;38158;53.338;6.514;2024-03-23T11:48:09;16.30;;;2.53;;
52180;SDS011;38158;53.338;6.514;2024-03-23T11:50:40;13.38;;;2.47;;
52180;SDS011;38158;53.338;6.514;2024-03-23T11:53:17;12.52;;;2.15;;
52180;SDS011;38158;53.338;6.514;2024-03-23T11:58:25;7.00;;;1.38;;
52180;SDS011;38158;53.338;6.514;2024-03-23T12:00:58;11.80;;;2.10;;
52180;SDS011;38158;53.338;6.514;2024-03-23T12:03:25;9.98;;;1.52;;
52180;SDS011;38158;53.338;6.514;2024-03-23T12:05:54;6.57;;;1.30;;
52180;SDS011;38158;53.338;6.514;2024-03-23T12:08:21;11.13;;;2.15;;
52180;SDS011;38158;53.338;6.514;2024-03-23T12:10:52;14.77;;;2.42;;
52180;SDS011;38158;53.338;6.514;2024-03-23T12:13:19;11.98;;;2.60;;
52180;SDS011;38158;53.338;6.514;2024-03-23T12:15:46;10.80;;;1.98;;
52180;SDS011;38158;53.338;6.514;2024-03-23T12:18:16;11.63;;;1.85;;
52180;SDS011;38158;53.338;6.514;2024-03-23T12:20:43;13.57;;;2.53;;
52180;SDS011;38158;53.338;6.514;2024-03-23T12:23:09;10.45;;;1.95;;
52180;SDS011;38158;53.338;6.514;2024-03-23T12:25:37;14.32;;;2.10;;
52180;SDS011;38158;53.338;6.514;2024-03-23T12:28:06;6.63;;;1.00;;
52180;SDS011;38158;53.338;6.514;2024-03-23T12:30:36;7.47;;;1.40;;
52180;SDS011;38158;53.338;6.514;2024-03-23T12:33:04;9.93;;;1.25;;
52180;SDS011;38158;53.338;6.514;2024-03-23T12:35:31;8.75;;;1.38;;
52180;SDS011;38158;53.338;6.514;2024-03-23T12:37:57;8.27;;;2.00;;
52180;SDS011;38158;53.338;6.514;2024-03-23T12:40:23;9.48;;;2.10;;
52180;SDS011;38158;53.338;6.514;2024-03-23T12:42:48;12.18;;;1.88;;
52180;SDS011;38158;53.338;6.514;2024-03-23T12:45:14;9.45;;;2.08;;
52180;SDS011;38158;53.338;6.514;2024-03-23T12:47:40;11.13;;;1.55;;
52180;SDS011;38158;53.338;6.514;2024-03-23T12:50:06;10.50;;;2.38;;
52180;SDS011;38158;53.338;6.514;2024-03-23T12:52:35;12.45;;;2.10;;
52180;SDS011;38158;53.338;6.514;2024-03-23T12:55:01;8.73;;;1.73;;
52180;SDS011;38158;53.338;6.514;2024-03-23T12:57:31;12.10;;;2.58;;
52180;SDS011;38158;53.338;6.514;2024-03-23T12:59:58;11.32;;;1.42;;
52180;SDS011;38158;53.338;6.514;2024-03-23T13:02:24;8.13;;;1.42;;
52180;SDS011;38158;53.338;6.514;2024-03-23T13:04:50;11.13;;;1.88;;
52180;SDS011;38158;53.338;6.514;2024-03-23T13:07:19;5.40;;;1.38;;
52180;SDS011;38158;53.338;6.514;2024-03-23T13:09:46;8.23;;;1.65;;
52180;SDS011;38158;53.338;6.514;2024-03-23T13:12:14;8.88;;;1.80;;
52180;SDS011;38158;53.338;6.514;2024-03-23T13:14:40;8.05;;;1.42;;
52180;SDS011;38158;53.338;6.514;2024-03-23T13:17:06;13.27;;;1.75;;
52180;SDS011;38158;53.338;6.514;2024-03-23T13:19:32;5.95;;;1.73;;
52180;SDS011;38158;53.338;6.514;2024-03-23T13:21:59;15.07;;;1.85;;
52180;SDS011;38158;53.338;6.514;2024-03-23T13:24:26;9.35;;;2.00;;
52180;SDS011;38158;53.338;6.514;2024-03-23T13:26:53;13.45;;;2.28;;
52180;SDS011;38158;53.338;6.514;2024-03-23T13:29:20;9.90;;;1.70;;
52180;SDS011;38158;53.338;6.514;2024-03-23T13:31:47;16.45;;;2.70;;
52180;SDS011;38158;53.338;6.514;2024-03-23T13:34:13;12.98;;;2.30;;
52180;SDS011;38158;53.338;6.514;2024-03-23T13:36:43;17.63;;;2.70;;
52180;SDS011;38158;53.338;6.514;2024-03-23T13:39:10;13.00;;;2.28;;
52180;SDS011;38158;53.338;6.514;2024-03-23T13:41:40;17.92;;;3.10;;
52180;SDS011;38158;53.338;6.514;2024-03-23T13:44:06;8.68;;;1.80;;
52180;SDS011;38158;53.338;6.514;2024-03-23T13:46:33;10.43;;;1.70;;
52180;SDS011;38158;53.338;6.514;2024-03-23T13:48:59;8.90;;;1.63;;
52180;SDS011;38158;53.338;6.514;2024-03-23T13:51:25;10.43;;;1.60;;
52180;SDS011;38158;53.338;6.514;2024-03-23T13:53:52;7.50;;;1.27;;
52180;SDS011;38158;53.338;6.514;2024-03-23T13:56:19;7.80;;;1.25;;
52180;SDS011;38158;53.338;6.514;2024-03-23T13:58:45;6.57;;;1.35;;
52180;SDS011;38158;53.338;6.514;2024-03-23T14:01:15;8.93;;;2.17;;
52180;SDS011;38158;53.338;6.514;2024-03-23T14:03:44;8.75;;;1.60;;
52180;SDS011;38158;53.338;6.514;2024-03-23T14:06:10;9.98;;;1.95;;
52180;SDS011;38158;53.338;6.514;2024-03-23T14:08:36;14.27;;;2.38;;
52180;SDS011;38158;53.338;6.514;2024-03-23T14:11:10;12.70;;;2.65;;
52180;SDS011;38158;53.338;6.514;2024-03-23T14:13:36;10.30;;;2.20;;
52180;SDS011;38158;53.338;6.514;2024-03-23T14:16:03;13.03;;;1.93;;
52180;SDS011;38158;53.338;6.514;2024-03-23T14:18:31;6.50;;;1.10;;
52180;SDS011;38158;53.338;6.514;2024-03-23T14:21:00;9.50;;;1.83;;
52180;SDS011;38158;53.338;6.514;2024-03-23T14:23:26;12.77;;;1.90;;
52180;SDS011;38158;53.338;6.514;2024-03-23T14:25:54;8.93;;;2.13;;
52180;SDS011;38158;53.338;6.514;2024-03-23T14:28:21;10.60;;;1.88;;
52180;SDS011;38158;53.338;6.514;2024-03-23T14:30:50;14.68;;;2.15;;
52180;SDS011;38158;53.338;6.514;2024-03-23T14:33:17;10.05;;;2.58;;
52180;SDS011;38158;53.338;6.514;2024-03-23T14:35:43;14.65;;;2.22;;
52180;SDS011;38158;53.338;6.514;2024-03-23T14:38:17;8.98;;;1.55;;
52180;SDS011;38158;53.338;6.514;2024-03-23T14:40:43;10.45;;;1.63;;
52180;SDS011;38158;53.338;6.514;2024-03-23T14:43:09;10.95;;;1.98;;
52180;SDS011;38158;53.338;6.514;2024-03-23T14:45:35;8.25;;;1.75;;
52180;SDS011;38158;53.338;6.514;2024-03-23T14:48:00;10.30;;;1.95;;
52180;SDS011;38158;53.338;6.514;2024-03-23T14:50:27;8.93;;;1.58;;
52180;SDS011;38158;53.338;6.514;2024-03-23T14:52:53;11.27;;;1.85;;
52180;SDS011;38158;53.338;6.514;2024-03-23T14:55:19;9.55;;;2.10;;
52180;SDS011;38158;53.338;6.514;2024-03-23T14:57:44;8.40;;;1.60;;
52180;SDS011;38158;53.338;6.514;2024-03-23T15:00:10;10.13;;;1.95;;
52180;SDS011;38158;53.338;6.514;2024-03-23T15:02:37;10.50;;;2.13;;
52180;SDS011;38158;53.338;6.514;2024-03-23T15:05:03;13.05;;;2.35;;
52180;SDS011;38158;53.338;6.514;2024-03-23T15:07:30;8.52;;;1.60;;
52180;SDS011;38158;53.338;6.514;2024-03-23T15:09:56;6.88;;;1.50;;
52180;SDS011;38158;53.338;6.514;2024-03-23T15:12:22;7.90;;;1.90;;
52180;SDS011;38158;53.338;6.514;2024-03-23T15:14:47;19.85;;;2.80;;
52180;SDS011;38158;53.338;6.514;2024-03-23T15:17:13;11.52;;;1.83;;
52180;SDS011;38158;53.338;6.514;2024-03-23T15:19:39;12.10;;;2.17;;
52180;SDS011;38158;53.338;6.514;2024-03-23T15:22:06;11.93;;;2.58;;
52180;SDS011;38158;53.338;6.514;2024-03-23T15:24:33;8.57;;;1.40;;
52180;SDS011;38158;53.338;6.514;2024-03-23T15:27:00;10.48;;;2.00;;
52180;SDS011;38158;53.338;6.514;2024-03-23T15:29:27;10.20;;;1.90;;
52180;SDS011;38158;53.338;6.514;2024-03-23T15:31:53;12.20;;;2.10;;
52180;SDS011;38158;53.338;6.514;2024-03-23T15:34:19;9.38;;;2.15;;
52180;SDS011;38158;53.338;6.514;2024-03-23T15:36:48;10.20;;;1.95;;
52180;SDS011;38158;53.338;6.514;2024-03-23T15:39:16;6.53;;;1.60;;
52180;SDS011;38158;53.338;6.514;2024-03-23T15:46:37;4.72;;;1.20;;
52180;SDS011;38158;53.338;6.514;2024-03-23T15:49:03;10.07;;;1.70;;